Time;durP1;ratioP1;P1;durP2;ratioP2;P2;SDS_P1;SDS_P2;PMS_P1;PMS_P2;Temp;Humidity;BMP_temperature;BMP_pressure;BME280_temperature;BME280_humidity;BME280_pressure;Samples;Min_cycle;Max_cycle;Signal;HPM_P1;HPM_P2
2022/07/05 00:00:43;;;;;;;4.70;2.10;;;;;;;;;;4988870;28;20234;-66
2022/07/05 00:03:10;;;;;;;4.73;2.13;;;;;;;;;;4997574;28;20235;-67
2022/07/05 00:05:36;;;;;;;3.33;2.30;;;;;;;;;;4972147;28;20235;-66
2022/07/05 00:08:03;;;;;;;3.17;2.00;;;;;;;;;;4986977;28;20652;-67
2022/07/05 00:10:31;;;;;;;3.60;2.13;;;;;;;;;;5001224;28;20233;-67
2022/07/05 00:12:57;;;;;;;5.33;2.23;;;;;;;;;;4998953;28;20237;-67
2022/07/05 00:15:41;;;;;;;4.53;2.13;;;;;;;;;;4997291;28;20315;-66
2022/07/05 00:18:08;;;;;;;7.80;2.27;;;;;;;;;;4996908;28;20223;-67
2022/07/05 00:20:35;;;;;;;8.23;2.60;;;;;;;;;;4996524;28;21171;-67
2022/07/05 00:23:02;;;;;;;3.40;2.07;;;;;;;;;;4998161;28;22642;-66
2022/07/05 00:25:28;;;;;;;4.60;2.40;;;;;;;;;;4998382;28;20227;-66
2022/07/05 00:27:55;;;;;;;3.57;2.00;;;;;;;;;;4981478;28;20235;-67
2022/07/05 00:30:22;;;;;;;3.40;1.93;;;;;;;;;;5000315;28;20793;-66
2022/07/05 00:32:48;;;;;;;3.80;2.20;;;;;;;;;;4998300;28;20234;-66
2022/07/05 00:35:15;;;;;;;5.70;2.57;;;;;;;;;;4981246;28;20223;-66
2022/07/05 00:37:41;;;;;;;8.57;2.53;;;;;;;;;;4997921;28;20246;-66
2022/07/05 00:40:09;;;;;;;3.10;2.23;;;;;;;;;;4998814;28;20242;-67
2022/07/05 00:42:35;;;;;;;3.13;2.07;;;;;;;;;;4998643;28;20229;-67
2022/07/05 00:45:03;;;;;;;5.93;2.00;;;;;;;;;;5004439;28;20230;-66
2022/07/05 00:47:29;;;;;;;2.80;2.03;;;;;;;;;;4986566;28;20225;-67
2022/07/05 00:49:56;;;;;;;2.97;2.20;;;;;;;;;;4985414;28;20225;-66
2022/07/05 00:52:23;;;;;;;7.60;2.20;;;;;;;;;;5002783;28;20231;-66
2022/07/05 00:54:49;;;;;;;6.20;2.13;;;;;;;;;;4986068;28;20278;-66
2022/07/05 00:57:16;;;;;;;3.00;2.20;;;;;;;;;;4982282;28;20223;-66
2022/07/05 00:59:43;;;;;;;4.27;2.23;;;;;;;;;;4986865;28;20231;-66
2022/07/05 01:02:09;;;;;;;7.30;2.00;;;;;;;;;;5003139;28;20235;-67
2022/07/05 01:04:44;;;;;;;4.90;2.10;;;;;;;;;;5000968;28;20281;-67
2022/07/05 01:07:11;;;;;;;3.77;2.10;;;;;;;;;;4987642;28;20232;-67
2022/07/05 01:09:38;;;;;;;3.80;2.30;;;;;;;;;;4990177;28;20238;-66
2022/07/05 01:12:05;;;;;;;4.43;2.30;;;;;;;;;;5001114;28;20434;-66
2022/07/05 01:14:32;;;;;;;3.43;2.20;;;;;;;;;;4985641;28;20235;-67
2022/07/05 01:16:58;;;;;;;4.37;2.30;;;;;;;;;;4970742;28;20654;-67
2022/07/05 01:19:25;;;;;;;2.33;2.13;;;;;;;;;;4986666;28;20750;-66
2022/07/05 01:21:52;;;;;;;3.10;2.10;;;;;;;;;;4975562;28;20228;-66
2022/07/05 01:24:18;;;;;;;3.83;2.40;;;;;;;;;;4987909;28;24920;-66
2022/07/05 01:26:46;;;;;;;4.17;2.70;;;;;;;;;;4983650;28;20588;-67
2022/07/05 01:29:12;;;;;;;5.57;2.30;;;;;;;;;;4985498;28;20340;-71
2022/07/05 01:31:39;;;;;;;5.63;2.37;;;;;;;;;;5000403;28;20241;-67
2022/07/05 01:34:06;;;;;;;3.70;2.10;;;;;;;;;;4985439;28;20227;-67
2022/07/05 01:36:33;;;;;;;5.30;2.30;;;;;;;;;;4965807;28;20239;-67
2022/07/05 01:39:00;;;;;;;2.80;2.10;;;;;;;;;;4997243;28;20281;-67
2022/07/05 01:41:27;;;;;;;6.23;2.10;;;;;;;;;;4984180;28;20227;-68
2022/07/05 01:43:53;;;;;;;2.47;2.27;;;;;;;;;;4985298;28;20219;-66
2022/07/05 01:46:20;;;;;;;3.80;3.10;;;;;;;;;;4995163;28;20338;-66
2022/07/05 01:48:47;;;;;;;3.23;2.57;;;;;;;;;;4985843;28;20227;-67
2022/07/05 01:51:17;;;;;;;6.33;3.00;;;;;;;;;;5000205;28;21083;-66
2022/07/05 01:53:44;;;;;;;4.47;2.63;;;;;;;;;;4951916;28;23200;-67
2022/07/05 01:56:11;;;;;;;4.53;2.20;;;;;;;;;;4982800;28;20227;-66
2022/07/05 01:58:38;;;;;;;2.93;1.87;;;;;;;;;;4983483;28;20230;-67
2022/07/05 02:01:04;;;;;;;5.83;2.13;;;;;;;;;;4995878;28;20227;-66
2022/07/05 02:03:31;;;;;;;3.73;2.23;;;;;;;;;;4995297;28;215235;-67
2022/07/05 02:06:18;;;;;;;4.27;2.10;;;;;;;;;;4984691;28;20752;-66
2022/07/05 02:08:44;;;;;;;3.67;1.97;;;;;;;;;;4982166;28;20354;-66
2022/07/05 02:11:11;;;;;;;4.90;2.10;;;;;;;;;;4970250;28;20258;-67
2022/07/05 02:13:38;;;;;;;4.53;2.30;;;;;;;;;;5001228;28;20231;-66
2022/07/05 02:16:05;;;;;;;3.83;2.03;;;;;;;;;;4999337;28;20657;-67
2022/07/05 02:18:32;;;;;;;5.00;2.67;;;;;;;;;;5002005;28;20709;-67
2022/07/05 02:20:58;;;;;;;3.70;2.70;;;;;;;;;;4982135;28;20242;-67
2022/07/05 02:23:25;;;;;;;3.27;2.60;;;;;;;;;;4977252;28;20227;-67
2022/07/05 02:26:09;;;;;;;3.30;2.30;;;;;;;;;;4993811;28;20273;-67
2022/07/05 02:28:38;;;;;;;5.93;2.70;;;;;;;;;;4998607;28;20717;-67
2022/07/05 02:31:05;;;;;;;3.27;2.17;;;;;;;;;;4983930;28;20305;-72
2022/07/05 02:33:32;;;;;;;7.03;2.70;;;;;;;;;;4999081;28;20560;-67
2022/07/05 02:36:05;;;;;;;5.73;2.20;;;;;;;;;;4981817;28;20219;-67
2022/07/05 02:38:31;;;;;;;3.27;2.47;;;;;;;;;;4999551;28;20952;-68
2022/07/05 02:40:58;;;;;;;4.57;2.20;;;;;;;;;;5003617;28;20230;-67
2022/07/05 02:43:25;;;;;;;3.77;2.40;;;;;;;;;;4998560;28;20245;-67
2022/07/05 02:45:52;;;;;;;5.10;2.33;;;;;;;;;;5002644;28;20234;-67
2022/07/05 02:48:18;;;;;;;8.17;2.40;;;;;;;;;;5000209;28;20245;-67
2022/07/05 02:50:47;;;;;;;3.40;2.10;;;;;;;;;;4984264;28;20265;-67
2022/07/05 02:53:13;;;;;;;3.20;2.20;;;;;;;;;;4999080;28;20219;-67
2022/07/05 02:55:40;;;;;;;8.63;2.33;;;;;;;;;;4998352;28;215188;-67
2022/07/05 02:58:07;;;;;;;3.83;2.20;;;;;;;;;;4980469;28;20227;-67
2022/07/05 03:00:34;;;;;;;3.00;1.97;;;;;;;;;;4995630;28;20328;-67
2022/07/05 03:03:01;;;;;;;3.00;1.93;;;;;;;;;;4981529;28;20223;-67
2022/07/05 03:05:30;;;;;;;4.57;2.80;;;;;;;;;;4982362;28;20294;-67
2022/07/05 03:08:01;;;;;;;4.53;2.20;;;;;;;;;;4981961;28;20258;-68
2022/07/05 03:10:30;;;;;;;5.50;2.73;;;;;;;;;;4984593;28;20594;-67
2022/07/05 03:12:57;;;;;;;4.90;2.27;;;;;;;;;;4979816;28;21541;-67
2022/07/05 03:15:24;;;;;;;5.50;2.30;;;;;;;;;;4977521;28;34044;-67
2022/07/05 03:17:51;;;;;;;3.50;2.40;;;;;;;;;;4980595;28;20238;-67
2022/07/05 03:20:20;;;;;;;3.50;2.23;;;;;;;;;;4981818;28;20241;-70
2022/07/05 03:22:47;;;;;;;4.33;2.37;;;;;;;;;;4979221;28;20721;-67
2022/07/05 03:25:17;;;;;;;4.23;2.60;;;;;;;;;;4983194;28;20278;-67
2022/07/05 03:27:43;;;;;;;7.03;2.63;;;;;;;;;;4993714;28;20703;-67
2022/07/05 03:30:10;;;;;;;4.23;2.03;;;;;;;;;;4979710;28;20337;-67
2022/07/05 03:32:37;;;;;;;4.93;2.30;;;;;;;;;;4991745;28;219796;-67
2022/07/05 03:35:06;;;;;;;4.80;2.23;;;;;;;;;;4980365;28;20230;-68
2022/07/05 03:37:33;;;;;;;5.43;2.77;;;;;;;;;;4966009;28;20251;-67
2022/07/05 03:39:59;;;;;;;8.13;3.00;;;;;;;;;;4981639;28;20235;-67
2022/07/05 03:42:26;;;;;;;5.00;2.80;;;;;;;;;;4983189;28;20230;-68
2022/07/05 03:44:53;;;;;;;4.33;2.73;;;;;;;;;;4996615;28;25396;-70
2022/07/05 03:47:20;;;;;;;4.77;2.30;;;;;;;;;;4983605;28;20246;-72
2022/07/05 03:49:48;;;;;;;4.37;2.93;;;;;;;;;;4981793;28;20237;-70
2022/07/05 03:52:15;;;;;;;4.47;2.83;;;;;;;;;;4969260;28;20231;-71
2022/07/05 03:54:44;;;;;;;7.37;2.80;;;;;;;;;;4980685;28;26680;-69
2022/07/05 03:57:29;;;;;;;11.93;3.00;;;;;;;;;;4984623;28;27685;-68
2022/07/05 03:59:56;;;;;;;4.87;3.00;;;;;;;;;;4975060;28;215233;-70
2022/07/05 04:02:22;;;;;;;7.80;2.90;;;;;;;;;;4977499;28;232380;-68
2022/07/05 04:04:49;;;;;;;9.90;3.03;;;;;;;;;;4961505;28;232795;-67
2022/07/05 04:07:17;;;;;;;4.87;2.50;;;;;;;;;;4969515;28;21049;-67
2022/07/05 04:09:44;;;;;;;5.07;2.50;;;;;;;;;;4976706;28;213791;-71
2022/07/05 04:12:12;;;;;;;5.00;2.60;;;;;;;;;;4964686;28;20246;-73
2022/07/05 04:14:41;;;;;;;5.20;3.00;;;;;;;;;;4958292;28;20277;-68
2022/07/05 04:17:08;;;;;;;4.97;2.80;;;;;;;;;;4984014;28;20278;-68
2022/07/05 04:19:35;;;;;;;6.63;2.80;;;;;;;;;;4959014;28;20226;-69
2022/07/05 04:22:02;;;;;;;6.70;3.17;;;;;;;;;;4973450;28;20262;-69
2022/07/05 04:24:30;;;;;;;9.30;3.20;;;;;;;;;;4987156;28;38093;-67
2022/07/05 04:26:57;;;;;;;5.20;3.10;;;;;;;;;;4956033;28;20235;-67
2022/07/05 04:29:26;;;;;;;3.97;3.27;;;;;;;;;;4977767;28;20225;-67
2022/07/05 04:31:52;;;;;;;6.07;2.87;;;;;;;;;;4999816;28;20542;-67
2022/07/05 04:34:19;;;;;;;6.97;3.23;;;;;;;;;;4996600;28;20235;-67
2022/07/05 04:36:46;;;;;;;5.23;2.63;;;;;;;;;;5000569;28;20238;-66
2022/07/05 04:39:13;;;;;;;6.17;2.97;;;;;;;;;;4994632;28;20324;-73
2022/07/05 04:41:49;;;;;;;7.20;2.80;;;;;;;;;;4984784;28;20278;-69
2022/07/05 04:44:15;;;;;;;7.17;2.90;;;;;;;;;;4987315;28;20237;-70
2022/07/05 04:46:42;;;;;;;5.77;2.70;;;;;;;;;;4957680;28;219966;-70
2022/07/05 04:49:09;;;;;;;8.07;3.17;;;;;;;;;;4986648;28;20312;-69
2022/07/05 04:51:36;;;;;;;5.00;2.53;;;;;;;;;;4985248;28;20230;-70
2022/07/05 04:54:03;;;;;;;3.27;2.27;;;;;;;;;;4970284;28;20226;-69
2022/07/05 04:56:29;;;;;;;6.33;1.77;;;;;;;;;;4987463;28;24842;-68
2022/07/05 04:58:56;;;;;;;4.23;1.63;;;;;;;;;;4973928;28;20629;-68
2022/07/05 05:01:23;;;;;;;4.13;1.77;;;;;;;;;;4980053;28;21136;-68
2022/07/05 05:03:49;;;;;;;2.60;1.60;;;;;;;;;;4986879;28;20249;-68
2022/07/05 05:06:16;;;;;;;3.03;1.57;;;;;;;;;;4992040;28;20238;-68
2022/07/05 05:08:43;;;;;;;4.53;1.63;;;;;;;;;;4992370;28;20238;-69
2022/07/05 05:11:09;;;;;;;4.20;1.57;;;;;;;;;;4995399;28;20227;-68
2022/07/05 05:13:36;;;;;;;3.37;1.70;;;;;;;;;;4996313;28;20219;-68
2022/07/05 05:16:03;;;;;;;6.07;2.23;;;;;;;;;;4981221;28;22974;-68
2022/07/05 05:18:30;;;;;;;2.87;1.50;;;;;;;;;;4965550;28;20247;-70
2022/07/05 05:20:57;;;;;;;2.77;1.70;;;;;;;;;;4989173;28;20230;-68
2022/07/05 05:23:24;;;;;;;3.27;1.50;;;;;;;;;;4956062;28;20235;-69
2022/07/05 05:25:50;;;;;;;2.27;0.90;;;;;;;;;;4991192;28;30018;-66
2022/07/05 05:28:17;;;;;;;2.70;1.10;;;;;;;;;;4986938;28;20231;-68
2022/07/05 05:30:44;;;;;;;1.43;1.10;;;;;;;;;;4993951;28;20718;-67
2022/07/05 05:33:10;;;;;;;2.97;0.97;;;;;;;;;;5000452;28;21943;-67
2022/07/05 05:35:37;;;;;;;3.77;1.30;;;;;;;;;;5002231;28;20699;-68
2022/07/05 05:38:04;;;;;;;2.73;1.40;;;;;;;;;;4999262;28;20239;-68
2022/07/05 05:40:31;;;;;;;1.57;1.00;;;;;;;;;;4995107;28;20229;-68
2022/07/05 05:42:59;;;;;;;3.50;1.30;;;;;;;;;;4989653;28;20220;-68
2022/07/05 05:45:26;;;;;;;4.20;2.40;;;;;;;;;;4990749;28;20300;-68
2022/07/05 05:47:53;;;;;;;3.50;0.90;;;;;;;;;;4991204;28;20231;-68
2022/07/05 05:50:21;;;;;;;2.00;1.10;;;;;;;;;;4988837;28;32009;-68
2022/07/05 05:52:47;;;;;;;2.27;0.90;;;;;;;;;;4989331;28;20235;-69
2022/07/05 05:55:14;;;;;;;2.07;0.90;;;;;;;;;;4989757;28;20227;-68
2022/07/05 05:57:41;;;;;;;3.00;0.80;;;;;;;;;;4990492;28;20262;-67
2022/07/05 06:00:08;;;;;;;3.93;1.37;;;;;;;;;;5000359;28;23752;-67
2022/07/05 06:02:38;;;;;;;2.33;0.90;;;;;;;;;;4973956;28;20738;-68
2022/07/05 06:05:05;;;;;;;2.27;0.90;;;;;;;;;;5002710;28;20297;-69
2022/07/05 06:07:43;;;;;;;2.77;1.20;;;;;;;;;;5000771;28;20251;-68
2022/07/05 06:10:28;;;;;;;2.93;1.00;;;;;;;;;;4997500;28;20298;-67
2022/07/05 06:12:59;;;;;;;2.80;1.20;;;;;;;;;;4985842;28;20231;-67
2022/07/05 06:15:25;;;;;;;3.13;1.10;;;;;;;;;;4995940;28;20226;-67
2022/07/05 06:17:52;;;;;;;1.70;1.00;;;;;;;;;;4985175;28;20238;-67
2022/07/05 06:20:20;;;;;;;2.40;1.03;;;;;;;;;;4996375;28;20235;-67
2022/07/05 06:22:47;;;;;;;4.93;1.20;;;;;;;;;;4999231;28;20239;-71
2022/07/05 06:25:14;;;;;;;2.07;1.07;;;;;;;;;;5000439;28;20227;-67
2022/07/05 06:27:55;;;;;;;1.50;0.90;;;;;;;;;;4997308;28;20234;-67
2022/07/05 06:30:23;;;;;;;3.23;1.10;;;;;;;;;;4980935;28;20642;-67
2022/07/05 06:32:50;;;;;;;2.30;1.00;;;;;;;;;;4990530;28;20304;-68
2022/07/05 06:35:17;;;;;;;2.37;0.90;;;;;;;;;;4985769;28;20258;-68
2022/07/05 06:37:44;;;;;;;1.70;0.97;;;;;;;;;;4976664;28;20327;-67
2022/07/05 06:40:12;;;;;;;2.33;1.10;;;;;;;;;;4966645;28;20789;-68
2022/07/05 06:42:44;;;;;;;5.57;1.10;;;;;;;;;;4986918;28;20237;-68
2022/07/05 06:45:13;;;;;;;2.27;0.90;;;;;;;;;;4985205;28;20886;-67
2022/07/05 06:47:40;;;;;;;3.43;0.90;;;;;;;;;;4988950;28;20945;-67
2022/07/05 06:50:07;;;;;;;1.47;0.80;;;;;;;;;;4981199;28;21102;-67
2022/07/05 06:52:33;;;;;;;1.10;0.60;;;;;;;;;;4987304;28;49132;-67
2022/07/05 06:55:00;;;;;;;2.20;0.90;;;;;;;;;;4978963;28;20223;-67
2022/07/05 06:57:27;;;;;;;2.87;0.67;;;;;;;;;;4976909;28;20227;-67
2022/07/05 06:59:56;;;;;;;1.40;0.83;;;;;;;;;;4947204;28;20831;-70
2022/07/05 07:02:25;;;;;;;3.20;1.10;;;;;;;;;;4954455;28;20631;-67
2022/07/05 07:04:52;;;;;;;2.33;0.80;;;;;;;;;;4968378;28;20217;-69
2022/07/05 07:10:23;;;;;;;1.73;0.80;;;;;;;;;;4986269;28;20239;-67
2022/07/05 07:12:55;;;;;;;2.30;0.80;;;;;;;;;;4984227;28;24917;-67
2022/07/05 07:15:23;;;;;;;1.70;0.97;;;;;;;;;;4983490;28;20235;-66
2022/07/05 07:17:50;;;;;;;2.43;0.60;;;;;;;;;;4975486;28;20266;-66
2022/07/05 07:20:17;;;;;;;1.57;0.90;;;;;;;;;;4985275;28;27699;-66
2022/07/05 07:22:43;;;;;;;1.63;0.67;;;;;;;;;;4986691;28;20231;-67
2022/07/05 07:25:11;;;;;;;2.00;0.70;;;;;;;;;;4970876;28;20258;-66
2022/07/05 07:27:42;;;;;;;1.33;0.60;;;;;;;;;;4969349;28;225944;-71
2022/07/05 07:30:11;;;;;;;3.73;0.70;;;;;;;;;;4987017;28;20238;-69
2022/07/05 07:32:37;;;;;;;4.17;0.90;;;;;;;;;;4979674;28;20241;-68
2022/07/05 07:35:04;;;;;;;1.27;0.90;;;;;;;;;;4986758;28;20229;-67
2022/07/05 07:37:31;;;;;;;3.17;0.80;;;;;;;;;;4989228;28;20236;-66
2022/07/05 07:39:58;;;;;;;1.83;0.80;;;;;;;;;;4959138;28;21460;-68
2022/07/05 07:42:43;;;;;;;2.10;1.10;;;;;;;;;;4984811;28;20281;-66
2022/07/05 07:45:10;;;;;;;3.43;0.80;;;;;;;;;;4987327;28;20693;-66
2022/07/05 07:47:37;;;;;;;3.50;1.10;;;;;;;;;;4974293;28;20710;-65
2022/07/05 07:50:04;;;;;;;2.70;0.90;;;;;;;;;;4983294;28;20215;-65
2022/07/05 07:52:33;;;;;;;1.53;1.00;;;;;;;;;;4983046;28;27712;-66
2022/07/05 07:55:00;;;;;;;1.57;0.93;;;;;;;;;;4985827;28;20618;-69
2022/07/05 07:57:27;;;;;;;2.20;0.97;;;;;;;;;;4974975;28;20235;-68
2022/07/05 07:59:54;;;;;;;2.20;1.00;;;;;;;;;;4971328;28;20231;-65
2022/07/05 08:02:22;;;;;;;2.03;0.77;;;;;;;;;;4983515;28;20232;-66
2022/07/05 08:04:49;;;;;;;2.13;1.00;;;;;;;;;;4976981;28;221350;-67
2022/07/05 08:07:17;;;;;;;3.40;1.00;;;;;;;;;;4967803;28;20233;-70
2022/07/05 08:09:44;;;;;;;1.60;0.80;;;;;;;;;;4976656;28;20220;-68
2022/07/05 08:12:11;;;;;;;2.73;0.90;;;;;;;;;;4981866;28;23433;-66
2022/07/05 08:14:39;;;;;;;0.90;0.80;;;;;;;;;;4987795;28;20247;-67
2022/07/05 08:17:08;;;;;;;2.37;0.80;;;;;;;;;;4978503;28;24517;-68
2022/07/05 08:22:22;;;;;;;2.87;0.80;;;;;;;;;;4969446;28;22351;-71
2022/07/05 08:24:50;;;;;;;1.97;0.90;;;;;;;;;;4937552;28;56750;-69
2022/07/05 08:27:19;;;;;;;2.53;0.90;;;;;;;;;;4957786;28;25854;-67
2022/07/05 08:29:47;;;;;;;1.30;0.80;;;;;;;;;;4989102;28;20242;-66
2022/07/05 08:32:16;;;;;;;1.90;0.83;;;;;;;;;;4987022;28;20231;-68
2022/07/05 08:34:43;;;;;;;4.20;1.00;;;;;;;;;;4986189;28;20239;-70
2022/07/05 08:37:11;;;;;;;3.70;1.00;;;;;;;;;;4988717;28;20282;-68
2022/07/05 08:39:41;;;;;;;2.07;0.87;;;;;;;;;;4976597;28;20238;-66
2022/07/05 08:42:12;;;;;;;3.47;0.90;;;;;;;;;;4991135;28;20304;-66
2022/07/05 08:44:43;;;;;;;1.93;0.90;;;;;;;;;;4979782;28;20239;-66
2022/07/05 08:47:11;;;;;;;2.27;1.10;;;;;;;;;;4986646;28;20230;-67
2022/07/05 08:49:40;;;;;;;1.93;1.00;;;;;;;;;;4987771;28;20689;-66
2022/07/05 08:52:12;;;;;;;1.83;0.93;;;;;;;;;;4987814;28;20238;-69
2022/07/05 08:54:42;;;;;;;1.13;0.90;;;;;;;;;;4988971;28;20250;-67
2022/07/05 08:57:10;;;;;;;2.90;1.10;;;;;;;;;;4989438;28;20235;-67
2022/07/05 08:59:40;;;;;;;2.77;1.30;;;;;;;;;;4963677;28;20697;-66
2022/07/05 09:02:10;;;;;;;4.23;1.10;;;;;;;;;;4987576;28;20231;-66
2022/07/05 09:04:41;;;;;;;3.47;1.10;;;;;;;;;;4989793;28;20300;-67
2022/07/05 09:07:10;;;;;;;2.47;1.13;;;;;;;;;;4991129;28;20281;-60
2022/07/05 09:09:42;;;;;;;2.47;1.10;;;;;;;;;;4995117;28;20305;-61
2022/07/05 09:12:13;;;;;;;1.40;1.00;;;;;;;;;;4987603;28;20223;-63
2022/07/05 09:14:53;;;;;;;2.17;1.00;;;;;;;;;;4984542;28;20223;-64
2022/07/05 09:17:21;;;;;;;3.60;1.40;;;;;;;;;;4993547;28;20233;-66
2022/07/05 09:20:07;;;;;;;3.07;1.40;;;;;;;;;;4976472;28;20247;-63
2022/07/05 09:23:01;;;;;;;2.73;1.23;;;;;;;;;;4974315;28;20364;-68
2022/07/05 09:25:30;;;;;;;1.20;1.00;;;;;;;;;;4977924;28;21105;-64
2022/07/05 09:28:01;;;;;;;1.63;1.07;;;;;;;;;;4990925;28;21057;-66
2022/07/05 09:30:30;;;;;;;2.07;1.00;;;;;;;;;;4994880;28;20287;-63
2022/07/05 09:33:21;;;;;;;1.90;1.00;;;;;;;;;;4983392;28;21018;-62
2022/07/05 09:35:57;;;;;;;2.13;1.17;;;;;;;;;;4989154;28;20955;-63
2022/07/05 09:38:27;;;;;;;2.00;1.07;;;;;;;;;;4989277;28;20254;-66
2022/07/05 09:40:57;;;;;;;2.40;1.00;;;;;;;;;;4979903;28;21042;-66
2022/07/05 09:43:25;;;;;;;2.73;1.07;;;;;;;;;;4980396;28;20369;-66
2022/07/05 09:45:58;;;;;;;1.47;0.80;;;;;;;;;;4982625;28;21326;-63
2022/07/05 09:48:26;;;;;;;1.67;0.90;;;;;;;;;;4991170;28;20239;-65
2022/07/05 09:51:09;;;;;;;3.20;1.10;;;;;;;;;;4989493;28;20230;-64
2022/07/05 09:53:57;;;;;;;4.47;1.47;;;;;;;;;;4972546;28;20331;-64
2022/07/05 09:56:29;;;;;;;4.03;1.10;;;;;;;;;;4989523;28;23273;-62
2022/07/05 09:59:11;;;;;;;2.27;0.93;;;;;;;;;;4987344;28;20231;-65
2022/07/05 10:01:38;;;;;;;1.73;1.07;;;;;;;;;;4791410;28;5100553;-64
2022/07/05 10:04:05;;;;;;;1.87;1.13;;;;;;;;;;4972396;28;20238;-64
2022/07/05 10:06:32;;;;;;;1.67;0.90;;;;;;;;;;4980004;28;20291;-64
2022/07/05 10:08:59;;;;;;;2.40;0.97;;;;;;;;;;4966749;28;20239;-63
2022/07/05 10:11:29;;;;;;;1.70;1.00;;;;;;;;;;4973097;28;20649;-64
2022/07/05 10:13:56;;;;;;;1.30;0.90;;;;;;;;;;4987198;28;20314;-67
2022/07/05 10:16:41;;;;;;;1.67;0.97;;;;;;;;;;4987405;28;20256;-64
2022/07/05 10:19:08;;;;;;;1.37;0.80;;;;;;;;;;4968840;28;20236;-64
2022/07/05 10:21:36;;;;;;;3.03;1.10;;;;;;;;;;4945934;28;20228;-65
2022/07/05 10:24:26;;;;;;;2.57;1.17;;;;;;;;;;4982069;28;20227;-67
2022/07/05 10:26:53;;;;;;;2.03;1.00;;;;;;;;;;4991081;28;20227;-67
2022/07/05 10:29:20;;;;;;;1.13;1.03;;;;;;;;;;4985140;28;20771;-66
2022/07/05 10:31:47;;;;;;;2.07;1.20;;;;;;;;;;4979971;28;21029;-68
2022/07/05 10:34:14;;;;;;;5.87;1.47;;;;;;;;;;4982000;28;20235;-67
2022/07/05 10:37:01;;;;;;;5.87;1.30;;;;;;;;;;4990472;28;20755;-66
2022/07/05 10:39:29;;;;;;;1.97;1.00;;;;;;;;;;4987747;28;20243;-68
2022/07/05 10:41:55;;;;;;;1.37;0.83;;;;;;;;;;4958105;28;20239;-67
2022/07/05 10:44:26;;;;;;;1.07;0.97;;;;;;;;;;4987631;28;20324;-66
2022/07/05 10:46:53;;;;;;;4.70;0.97;;;;;;;;;;4967610;28;20315;-68
2022/07/05 10:49:19;;;;;;;2.50;1.10;;;;;;;;;;4967110;28;31582;-66
2022/07/05 10:51:47;;;;;;;3.43;0.93;;;;;;;;;;4950986;28;20770;-68
2022/07/05 10:54:19;;;;;;;1.20;0.90;;;;;;;;;;4986593;28;20259;-69
2022/07/05 10:57:05;;;;;;;1.73;0.93;;;;;;;;;;4989299;28;20223;-67
2022/07/05 10:59:52;;;;;;;1.77;0.97;;;;;;;;;;4987382;28;29126;-66
2022/07/05 11:02:19;;;;;;;1.40;1.00;;;;;;;;;;4973609;28;20230;-68
2022/07/05 11:04:46;;;;;;;2.27;1.00;;;;;;;;;;4964301;28;20514;-67
2022/07/05 11:07:13;;;;;;;2.17;1.00;;;;;;;;;;4989006;28;20249;-67
2022/07/05 11:09:45;;;;;;;1.87;1.23;;;;;;;;;;4972553;28;20563;-70
2022/07/05 11:12:12;;;;;;;23.30;2.83;;;;;;;;;;4976412;28;29515;-67
2022/07/05 11:15:03;;;;;;;3.60;1.90;;;;;;;;;;4961077;28;20223;-68
2022/07/05 11:17:30;;;;;;;10.00;2.20;;;;;;;;;;4969886;28;20311;-66
2022/07/05 11:20:27;;;;;;;6.43;2.13;;;;;;;;;;4987589;28;20269;-70
2022/07/05 11:23:01;;;;;;;3.03;1.53;;;;;;;;;;4936286;28;20426;-67
2022/07/05 11:25:30;;;;;;;2.80;1.50;;;;;;;;;;4961880;28;20321;-67
2022/07/05 11:28:00;;;;;;;2.67;1.50;;;;;;;;;;4985621;28;20249;-69
2022/07/05 11:30:27;;;;;;;4.23;1.60;;;;;;;;;;4975224;28;20343;-68
2022/07/05 11:32:54;;;;;;;2.60;1.50;;;;;;;;;;4983116;28;20249;-67
2022/07/05 11:35:21;;;;;;;4.50;1.50;;;;;;;;;;4989472;28;20985;-67
2022/07/05 11:38:01;;;;;;;2.50;1.30;;;;;;;;;;4958549;28;20667;-68
2022/07/05 11:40:48;;;;;;;1.93;1.20;;;;;;;;;;4988085;28;20314;-68
2022/07/05 11:43:27;;;;;;;2.90;1.27;;;;;;;;;;4955435;28;22395;-68
2022/07/05 11:45:57;;;;;;;11.57;2.10;;;;;;;;;;4792552;28;5090020;-68
2022/07/05 11:48:24;;;;;;;2.97;1.40;;;;;;;;;;4966781;28;20290;-68
2022/07/05 11:50:51;;;;;;;4.27;1.63;;;;;;;;;;4952676;28;20339;-67
2022/07/05 11:53:31;;;;;;;2.87;1.40;;;;;;;;;;4986932;28;20670;-68
2022/07/05 11:56:18;;;;;;;3.77;1.50;;;;;;;;;;4970943;28;20231;-69
2022/07/05 11:58:44;;;;;;;3.03;1.40;;;;;;;;;;4982276;28;20239;-68
2022/07/05 12:01:11;;;;;;;3.37;1.20;;;;;;;;;;4973910;28;20231;-71
2022/07/05 12:03:39;;;;;;;2.43;1.40;;;;;;;;;;4946917;28;20242;-67
2022/07/05 12:06:12;;;;;;;3.37;1.37;;;;;;;;;;4969637;28;25723;-67
2022/07/05 12:08:39;;;;;;;2.57;1.40;;;;;;;;;;4959038;28;20232;-67
2022/07/05 12:13:51;;;;;;;1.00;1.00;;;;;;;;;;4957921;28;20227;-69
2022/07/05 12:16:19;;;;;;;1.63;1.13;;;;;;;;;;4776834;28;5089325;-70
2022/07/05 12:18:47;;;;;;;2.10;1.17;;;;;;;;;;4983459;28;20250;-68
2022/07/05 12:21:17;;;;;;;50.57;6.87;;;;;;;;;;4987462;28;21016;-66
2022/07/05 12:23:44;;;;;;;4.87;1.43;;;;;;;;;;4961579;28;20235;-68
2022/07/05 12:26:15;;;;;;;4.23;1.33;;;;;;;;;;4963865;28;20308;-69
2022/07/05 12:28:41;;;;;;;2.43;1.27;;;;;;;;;;4993049;28;20231;-67
2022/07/05 12:31:15;;;;;;;2.43;1.30;;;;;;;;;;4983073;28;20227;-67
2022/07/05 12:33:42;;;;;;;4.80;1.30;;;;;;;;;;4997018;28;20241;-66
2022/07/05 12:36:18;;;;;;;2.70;1.50;;;;;;;;;;4997405;28;20236;-66
2022/07/05 12:38:45;;;;;;;2.90;1.60;;;;;;;;;;4984967;28;20677;-66
2022/07/05 12:41:12;;;;;;;2.87;1.40;;;;;;;;;;5004447;28;20234;-66
2022/07/05 12:43:50;;;;;;;2.03;1.20;;;;;;;;;;4999989;28;20228;-65
2022/07/05 12:46:16;;;;;;;3.70;1.37;;;;;;;;;;5002213;28;20322;-66
2022/07/05 12:48:43;;;;;;;3.90;1.10;;;;;;;;;;5000941;28;20238;-66
2022/07/05 12:51:10;;;;;;;4.30;1.50;;;;;;;;;;4984864;28;20827;-67
2022/07/05 12:59:40;;;;;;;3.07;1.30;;;;;;;;;;4979252;28;20259;-67
2022/07/05 13:02:11;;;;;;;4.77;1.70;;;;;;;;;;4994759;28;20216;-66
2022/07/05 13:04:37;;;;;;;4.33;1.70;;;;;;;;;;5001565;28;20303;-66
2022/07/05 13:07:10;;;;;;;4.67;2.00;;;;;;;;;;4999458;28;20234;-67
2022/07/05 13:10:12;;;;;;;4.27;1.73;;;;;;;;;;4989409;28;20629;-66
2022/07/05 13:12:39;;;;;;;4.33;1.70;;;;;;;;;;5003107;28;20228;-66
2022/07/05 13:15:05;;;;;;;5.53;2.20;;;;;;;;;;5002814;28;20709;-67
2022/07/05 13:17:32;;;;;;;2.87;1.43;;;;;;;;;;5001195;28;20220;-65
2022/07/05 13:19:59;;;;;;;3.83;1.73;;;;;;;;;;5001135;28;20590;-65
2022/07/05 13:22:26;;;;;;;4.63;1.77;;;;;;;;;;5004013;28;20247;-65
2022/07/05 13:24:54;;;;;;;6.37;1.83;;;;;;;;;;5002185;28;20231;-65
2022/07/05 13:27:20;;;;;;;4.33;1.67;;;;;;;;;;5000936;28;20239;-70
2022/07/05 13:29:54;;;;;;;5.60;1.73;;;;;;;;;;5002172;28;20242;-65
2022/07/05 13:32:21;;;;;;;5.07;1.80;;;;;;;;;;5003574;28;21210;-66
2022/07/05 13:34:50;;;;;;;4.30;1.73;;;;;;;;;;4983862;28;20418;-65
2022/07/05 13:37:17;;;;;;;5.13;1.90;;;;;;;;;;4989263;28;20285;-65
2022/07/05 13:39:43;;;;;;;3.57;1.80;;;;;;;;;;5002608;28;20717;-66
2022/07/05 13:42:10;;;;;;;3.20;1.30;;;;;;;;;;5002331;28;20235;-66
2022/07/05 13:44:37;;;;;;;3.90;1.70;;;;;;;;;;5003039;28;20838;-66
2022/07/05 13:47:05;;;;;;;3.40;1.70;;;;;;;;;;5001821;28;20238;-66
2022/07/05 13:49:31;;;;;;;4.50;1.60;;;;;;;;;;4998545;28;20645;-66
2022/07/05 13:52:00;;;;;;;2.87;1.60;;;;;;;;;;4977009;28;20215;-66
2022/07/05 13:54:28;;;;;;;3.10;1.57;;;;;;;;;;5001714;28;20238;-66
2022/07/05 13:56:55;;;;;;;2.33;1.30;;;;;;;;;;5001894;28;20238;-69
2022/07/05 13:59:21;;;;;;;3.43;1.50;;;;;;;;;;4978116;28;20241;-67
2022/07/05 14:01:48;;;;;;;4.40;1.43;;;;;;;;;;5001944;28;20722;-66
2022/07/05 14:04:15;;;;;;;2.93;1.37;;;;;;;;;;4998129;28;20218;-66
2022/07/05 14:06:59;;;;;;;12.57;2.23;;;;;;;;;;5001304;28;20220;-67
2022/07/05 14:09:26;;;;;;;3.90;1.30;;;;;;;;;;5000842;28;30303;-66
2022/07/05 14:11:54;;;;;;;3.80;1.40;;;;;;;;;;4999805;28;20231;-66
2022/07/05 14:14:21;;;;;;;4.67;1.50;;;;;;;;;;4977570;28;20231;-66
2022/07/05 14:16:48;;;;;;;3.97;1.50;;;;;;;;;;4972880;28;20223;-67
2022/07/05 14:19:15;;;;;;;5.80;1.70;;;;;;;;;;5000364;28;20231;-67
2022/07/05 14:21:46;;;;;;;4.00;1.60;;;;;;;;;;5002306;28;20223;-67
2022/07/05 14:24:14;;;;;;;3.40;1.60;;;;;;;;;;4999534;28;20950;-66
2022/07/05 14:26:41;;;;;;;3.63;1.63;;;;;;;;;;4985845;28;20219;-67
2022/07/05 14:29:08;;;;;;;4.97;2.00;;;;;;;;;;5001000;28;20230;-67
2022/07/05 14:31:35;;;;;;;3.47;1.50;;;;;;;;;;5002183;28;20230;-67
2022/07/05 14:34:02;;;;;;;6.03;1.80;;;;;;;;;;4977202;28;20223;-66
2022/07/05 14:36:28;;;;;;;2.23;1.57;;;;;;;;;;4973092;28;20234;-68
2022/07/05 14:38:55;;;;;;;4.30;1.43;;;;;;;;;;5000911;28;20223;-61
2022/07/05 14:41:22;;;;;;;6.17;1.53;;;;;;;;;;5002840;28;20243;-61
2022/07/05 14:43:48;;;;;;;5.93;1.90;;;;;;;;;;5001084;28;20314;-61
2022/07/05 14:46:18;;;;;;;5.00;1.60;;;;;;;;;;5002423;28;20966;-61
2022/07/05 14:48:45;;;;;;;4.77;1.73;;;;;;;;;;4976894;28;20703;-61
2022/07/05 14:51:12;;;;;;;3.17;1.30;;;;;;;;;;4992721;28;31276;-61
2022/07/05 14:53:46;;;;;;;6.13;1.20;;;;;;;;;;4949317;28;26337;-62
2022/07/05 14:56:14;;;;;;;4.10;1.50;;;;;;;;;;4951201;28;23903;-62
2022/07/05 14:58:45;;;;;;;4.80;1.60;;;;;;;;;;4968868;28;49125;-61
2022/07/05 15:01:17;;;;;;;6.07;1.60;;;;;;;;;;4959331;28;32031;-64
2022/07/05 15:03:44;;;;;;;4.67;1.50;;;;;;;;;;4960136;28;20826;-60
2022/07/05 15:06:11;;;;;;;5.17;1.43;;;;;;;;;;5000989;28;20224;-61
2022/07/05 15:08:37;;;;;;;3.63;1.80;;;;;;;;;;5002845;28;20227;-61